Time;durP1;ratioP1;P1;durP2;ratioP2;P2;SDS_P1;SDS_P2;PMS_P1;PMS_P2;Temp;Humidity;BMP_temperature;BMP_pressure;BME280_temperature;BME280_humidity;BME280_pressure;Samples;Min_cycle;Max_cycle;Signal;HPM_P1;HPM_P2
2023/01/19 00:02:14;;;;;;;12.40;9.10;;;3.20;99.90;;;;;;5018969;28;20203;-77
2023/01/19 00:04:39;;;;;;;10.00;8.97;;;3.20;99.90;;;;;;5036515;28;20188;-77
2023/01/19 00:07:06;;;;;;;9.60;8.60;;;3.20;99.90;;;;;;5035319;28;20552;-77
2023/01/19 00:09:32;;;;;;;11.63;9.10;;;3.10;99.90;;;;;;5012713;28;20189;-77
2023/01/19 00:11:58;;;;;;;11.33;8.60;;;3.10;99.90;;;;;;5038746;28;20448;-77
2023/01/19 00:14:24;;;;;;;10.30;9.23;;;3.10;99.90;;;;;;5004924;28;20457;-77
2023/01/19 00:16:50;;;;;;;15.27;10.57;;;3.20;99.90;;;;;;5011624;28;20496;-78
2023/01/19 00:19:15;;;;;;;12.20;8.40;;;3.10;99.90;;;;;;5010978;28;20595;-78
2023/01/19 00:21:41;;;;;;;11.53;9.50;;;3.30;99.90;;;;;;5043192;28;20284;-77
2023/01/19 00:24:07;;;;;;;12.20;9.33;;;3.20;99.90;;;;;;5013999;28;20209;-78
2023/01/19 00:26:32;;;;;;;16.23;9.27;;;3.30;99.90;;;;;;5042135;28;20242;-78
2023/01/19 00:28:58;;;;;;;9.93;8.77;;;3.30;99.90;;;;;;5009634;28;20434;-77
2023/01/19 00:31:24;;;;;;;10.23;9.10;;;3.20;99.90;;;;;;5045889;28;20226;-78
2023/01/19 00:33:51;;;;;;;10.60;9.50;;;3.30;99.90;;;;;;5012207;28;20186;-78
2023/01/19 00:36:17;;;;;;;12.47;9.00;;;3.30;99.90;;;;;;5031450;28;20195;-78
2023/01/19 00:38:43;;;;;;;11.67;9.00;;;3.20;99.90;;;;;;5011174;28;20468;-77
2023/01/19 00:41:09;;;;;;;11.33;8.70;;;3.30;99.90;;;;;;5017784;28;20480;-77
2023/01/19 00:43:34;;;;;;;9.60;8.60;;;3.50;99.90;;;;;;5034817;28;20178;-76
2023/01/19 00:46:00;;;;;;;11.50;9.57;;;3.50;99.90;;;;;;5003280;28;20604;-77
2023/01/19 00:48:26;;;;;;;10.07;8.43;;;3.50;99.90;;;;;;5033961;28;20212;-77
2023/01/19 00:50:51;;;;;;;9.40;8.23;;;3.40;99.90;;;;;;5050235;28;20182;-77
2023/01/19 00:53:17;;;;;;;9.50;8.60;;;3.30;99.90;;;;;;5016242;28;20829;-77
2023/01/19 00:55:43;;;;;;;11.77;9.20;;;3.60;99.90;;;;;;5041611;28;20268;-77
2023/01/19 00:58:08;;;;;;;10.50;8.30;;;3.40;99.90;;;;;;5045580;28;20214;-77
2023/01/19 01:00:34;;;;;;;15.37;8.87;;;3.50;99.90;;;;;;5019900;28;20276;-77
2023/01/19 01:03:00;;;;;;;14.53;9.73;;;3.40;99.90;;;;;;5012031;28;20182;-77
2023/01/19 01:05:25;;;;;;;10.47;9.37;;;3.30;99.90;;;;;;5033410;28;20181;-77
2023/01/19 01:07:51;;;;;;;10.70;9.40;;;3.20;99.90;;;;;;4996215;28;20185;-77
2023/01/19 01:10:22;;;;;;;9.13;8.20;;;3.50;99.90;;;;;;5030912;28;20300;-77
2023/01/19 01:12:48;;;;;;;11.23;9.20;;;3.60;99.90;;;;;;5037384;28;20217;-77
2023/01/19 01:15:15;;;;;;;11.57;9.17;;;3.30;99.90;;;;;;5029289;28;20520;-77
2023/01/19 01:17:45;;;;;;;11.57;8.83;;;3.60;99.90;;;;;;5028470;28;20802;-77
2023/01/19 01:20:16;;;;;;;12.03;8.60;;;3.50;99.90;;;;;;5003607;28;20476;-78
2023/01/19 01:22:46;;;;;;;11.43;9.20;;;3.60;99.90;;;;;;5006257;28;20437;-77
2023/01/19 01:25:17;;;;;;;10.57;8.67;;;3.30;99.90;;;;;;5021818;28;20422;-77
2023/01/19 01:27:43;;;;;;;12.33;9.17;;;3.40;99.90;;;;;;5041317;28;20424;-79
2023/01/19 01:30:11;;;;;;;11.50;9.40;;;3.40;99.90;;;;;;5030834;28;20461;-77
2023/01/19 01:32:37;;;;;;;15.57;8.80;;;3.40;99.90;;;;;;5034862;28;20539;-78
2023/01/19 01:35:04;;;;;;;11.47;9.50;;;3.40;99.90;;;;;;5017439;28;20564;-77
2023/01/19 01:37:30;;;;;;;9.83;8.73;;;3.60;99.90;;;;;;5044656;28;20496;-78
2023/01/19 01:39:55;;;;;;;12.40;9.37;;;3.50;99.90;;;;;;5016098;28;20463;-77
2023/01/19 01:42:26;;;;;;;11.30;8.90;;;3.50;99.90;;;;;;5043854;28;20205;-77
2023/01/19 01:44:54;;;;;;;12.80;9.20;;;3.50;99.90;;;;;;4999035;28;20298;-77
2023/01/19 01:47:32;;;;;;;11.63;8.80;;;3.50;99.90;;;;;;5011340;28;20436;-77
2023/01/19 01:50:07;;;;;;;13.40;9.10;;;3.50;99.90;;;;;;5029375;28;21126;-77
2023/01/19 01:52:37;;;;;;;15.30;9.37;;;3.40;99.90;;;;;;5029574;28;20471;-78
2023/01/19 01:55:07;;;;;;;10.93;9.23;;;3.50;99.90;;;;;;5029075;28;20415;-77
2023/01/19 01:57:40;;;;;;;12.43;9.10;;;3.40;99.90;;;;;;5011276;28;20465;-77
2023/01/19 02:00:07;;;;;;;11.10;8.80;;;3.50;99.90;;;;;;5027774;28;20513;-77
2023/01/19 02:02:51;;;;;;;10.10;9.03;;;3.60;99.90;;;;;;5029074;28;20459;-77
2023/01/19 02:05:23;;;;;;;11.50;9.10;;;3.50;99.90;;;;;;5011316;28;20413;-77
2023/01/19 02:13:48;;;;;;;10.63;8.50;;;3.50;99.90;;;;;;5028692;28;20479;-77
2023/01/19 02:16:16;;;;;;;11.20;8.70;;;3.60;99.90;;;;;;5029235;28;20932;-77
2023/01/19 02:18:44;;;;;;;10.13;8.50;;;3.60;99.90;;;;;;5010920;28;20527;-78
2023/01/19 02:21:21;;;;;;;10.80;9.00;;;3.60;99.90;;;;;;5028827;28;20861;-77
2023/01/19 02:23:52;;;;;;;9.70;8.37;;;3.40;99.90;;;;;;5030529;28;20427;-77
2023/01/19 02:26:22;;;;;;;12.77;9.17;;;3.60;99.90;;;;;;5033014;28;20440;-77
2023/01/19 02:28:52;;;;;;;15.47;10.30;;;3.50;99.90;;;;;;5015074;28;21145;-78
2023/01/19 02:31:18;;;;;;;13.30;8.17;;;3.40;99.90;;;;;;5032545;28;20461;-77
2023/01/19 02:33:44;;;;;;;11.10;8.87;;;3.60;99.90;;;;;;5032080;28;20421;-77
2023/01/19 02:36:14;;;;;;;10.23;9.23;;;3.50;99.90;;;;;;5032573;28;20432;-77
2023/01/19 02:38:40;;;;;;;11.67;8.87;;;3.40;99.90;;;;;;5014367;28;20452;-77
2023/01/19 02:41:10;;;;;;;9.40;8.33;;;3.60;99.90;;;;;;5032091;28;20975;-77
2023/01/19 02:43:37;;;;;;;12.13;9.07;;;3.60;99.90;;;;;;5032024;28;20453;-77
2023/01/19 02:46:03;;;;;;;14.67;9.50;;;3.50;99.90;;;;;;5032334;28;20421;-77
2023/01/19 02:48:29;;;;;;;10.13;8.27;;;3.50;99.90;;;;;;5031864;28;20437;-77
2023/01/19 02:51:16;;;;;;;9.87;8.00;;;3.50;99.90;;;;;;5032149;28;20561;-77
2023/01/19 02:54:03;;;;;;;14.47;9.63;;;3.40;99.90;;;;;;5014030;28;20544;-77
2023/01/19 02:57:00;;;;;;;13.10;8.13;;;3.60;99.90;;;;;;5032423;28;20460;-77
2023/01/19 03:00:01;;;;;;;9.07;8.00;;;3.60;99.90;;;;;;5014105;28;20782;-77
2023/01/19 03:02:49;;;;;;;10.97;8.37;;;3.50;99.90;;;;;;5032093;28;20433;-77
2023/01/19 03:05:39;;;;;;;14.70;8.60;;;3.40;99.90;;;;;;5031837;28;20409;-77
2023/01/19 03:08:18;;;;;;;12.37;8.20;;;3.50;99.90;;;;;;5013986;28;20800;-77
2023/01/19 03:11:03;;;;;;;10.23;8.53;;;3.40;99.90;;;;;;5031713;28;20433;-77
2023/01/19 03:14:02;;;;;;;13.30;8.27;;;3.50;99.90;;;;;;5014183;28;20780;-78
2023/01/19 03:16:41;;;;;;;16.57;9.57;;;3.50;99.90;;;;;;5031926;28;20436;-76
2023/01/19 03:19:30;;;;;;;10.03;7.90;;;3.50;99.90;;;;;;5031355;28;20430;-78
2023/01/19 03:21:59;;;;;;;9.70;7.80;;;3.50;99.90;;;;;;5031241;28;20445;-76
2023/01/19 03:24:29;;;;;;;14.13;8.00;;;3.40;99.90;;;;;;5031235;28;20441;-77
2023/01/19 03:27:02;;;;;;;10.23;8.50;;;3.40;99.90;;;;;;5032441;28;20409;-78
2023/01/19 03:29:31;;;;;;;8.73;6.93;;;3.40;99.90;;;;;;5014552;28;20512;-77
2023/01/19 03:32:00;;;;;;;10.00;8.60;;;3.50;99.90;;;;;;5014318;28;20534;-77
2023/01/19 03:34:27;;;;;;;12.00;8.43;;;3.40;99.90;;;;;;5030912;28;20425;-77
2023/01/19 03:36:57;;;;;;;10.53;7.50;;;3.50;99.90;;;;;;5031346;28;20548;-77
2023/01/19 03:39:25;;;;;;;11.73;7.77;;;3.40;99.90;;;;;;5031353;28;20409;-78
2023/01/19 03:41:56;;;;;;;12.20;8.17;;;3.30;99.90;;;;;;5031825;28;20495;-78
2023/01/19 03:44:24;;;;;;;10.37;7.70;;;3.60;99.90;;;;;;5031270;28;20475;-77
2023/01/19 03:46:50;;;;;;;9.93;8.43;;;3.40;99.90;;;;;;5031030;28;20423;-77
2023/01/19 03:49:16;;;;;;;9.37;7.40;;;3.30;99.90;;;;;;5031223;28;20789;-77
2023/01/19 03:51:42;;;;;;;9.87;7.30;;;3.30;99.90;;;;;;5030976;28;20468;-77
2023/01/19 03:54:09;;;;;;;13.83;7.40;;;3.50;99.90;;;;;;5013105;28;20586;-78
2023/01/19 03:56:34;;;;;;;8.00;7.20;;;3.30;99.90;;;;;;5013686;28;20623;-78
2023/01/19 03:59:00;;;;;;;11.70;7.37;;;3.50;99.90;;;;;;5031007;28;20425;-78
2023/01/19 04:01:26;;;;;;;11.30;8.17;;;3.50;99.90;;;;;;5030900;28;20225;-77
2023/01/19 04:03:52;;;;;;;11.17;7.60;;;3.50;99.90;;;;;;5030627;28;20337;-77
2023/01/19 04:06:19;;;;;;;11.87;8.07;;;3.50;99.90;;;;;;5013122;28;20435;-77
2023/01/19 04:08:48;;;;;;;9.90;7.60;;;3.50;99.90;;;;;;5030519;28;20647;-77
2023/01/19 04:11:13;;;;;;;11.20;7.60;;;3.30;99.90;;;;;;5030451;28;20449;-77
2023/01/19 04:13:39;;;;;;;8.73;6.80;;;3.40;99.90;;;;;;5030570;28;20467;-77
2023/01/19 04:16:05;;;;;;;9.60;7.30;;;3.40;99.90;;;;;;5030672;28;20635;-78
2023/01/19 04:18:32;;;;;;;10.23;7.20;;;3.40;99.90;;;;;;5012585;28;20698;-77
2023/01/19 04:21:05;;;;;;;8.70;7.60;;;3.50;99.90;;;;;;5012611;28;20766;-78
2023/01/19 04:23:32;;;;;;;11.60;7.23;;;3.40;99.90;;;;;;5030468;28;20437;-77
2023/01/19 04:26:03;;;;;;;9.90;8.00;;;3.40;99.90;;;;;;5012961;28;20444;-78
2023/01/19 04:28:29;;;;;;;10.37;7.80;;;3.30;99.90;;;;;;5030197;28;20424;-77
2023/01/19 04:30:55;;;;;;;10.30;8.90;;;3.50;99.90;;;;;;4996198;28;20465;-77
2023/01/19 04:33:22;;;;;;;10.43;7.70;;;3.60;99.90;;;;;;5032582;28;20428;-79
2023/01/19 04:35:49;;;;;;;11.30;8.47;;;3.30;99.90;;;;;;5031755;28;20221;-79
2023/01/19 04:38:15;;;;;;;8.50;7.40;;;3.60;99.90;;;;;;5031438;28;20965;-78
2023/01/19 04:40:41;;;;;;;10.67;8.17;;;3.40;99.90;;;;;;5031697;28;20424;-79
2023/01/19 04:43:07;;;;;;;8.73;7.83;;;3.40;99.90;;;;;;4998425;28;20417;-78
2023/01/19 04:45:32;;;;;;;8.53;7.63;;;3.40;99.90;;;;;;5031621;28;20186;-78
2023/01/19 04:47:58;;;;;;;9.13;7.53;;;3.50;99.90;;;;;;5012307;28;20189;-78
2023/01/19 04:50:25;;;;;;;11.67;8.67;;;3.40;99.90;;;;;;5031565;28;20228;-78
2023/01/19 04:52:50;;;;;;;9.30;7.70;;;3.30;99.90;;;;;;5031763;28;20452;-78
2023/01/19 04:55:17;;;;;;;12.10;9.00;;;3.30;99.90;;;;;;5031560;28;20409;-78
2023/01/19 04:57:43;;;;;;;10.83;8.17;;;3.20;99.90;;;;;;5013761;28;20210;-78
2023/01/19 05:00:09;;;;;;;11.23;8.90;;;3.30;99.90;;;;;;5031610;28;20478;-78
2023/01/19 05:02:35;;;;;;;11.03;8.43;;;3.10;99.90;;;;;;5014344;28;20201;-78
2023/01/19 05:05:01;;;;;;;9.67;7.43;;;3.10;99.90;;;;;;5031454;28;20413;-78
2023/01/19 05:07:27;;;;;;;10.10;7.80;;;3.00;99.90;;;;;;5031735;28;20554;-78
2023/01/19 05:09:52;;;;;;;10.23;8.17;;;3.10;99.90;;;;;;5031705;28;20540;-78
2023/01/19 05:12:18;;;;;;;9.30;7.93;;;3.00;99.90;;;;;;5013801;28;20202;-79
2023/01/19 05:14:44;;;;;;;9.43;7.33;;;3.00;99.90;;;;;;5011826;28;20182;-79
2023/01/19 05:17:10;;;;;;;7.93;6.60;;;3.10;99.90;;;;;;5013623;28;20511;-79
2023/01/19 05:19:36;;;;;;;9.60;7.30;;;3.10;99.90;;;;;;4998098;28;20178;-78
2023/01/19 05:22:03;;;;;;;8.17;6.50;;;3.00;99.90;;;;;;5016554;28;20433;-78
2023/01/19 05:24:28;;;;;;;10.03;7.50;;;2.80;99.90;;;;;;5033168;28;20174;-78
2023/01/19 05:26:54;;;;;;;10.77;7.43;;;3.00;99.90;;;;;;5015483;28;20504;-78
2023/01/19 05:29:20;;;;;;;8.37;7.00;;;3.00;99.90;;;;;;5014331;28;20185;-77
2023/01/19 05:31:46;;;;;;;8.47;7.57;;;2.90;99.90;;;;;;5013879;28;20248;-78
2023/01/19 05:34:11;;;;;;;11.47;7.53;;;3.10;99.90;;;;;;5031707;28;20409;-79
2023/01/19 05:36:37;;;;;;;9.90;6.70;;;3.20;99.90;;;;;;4998046;28;20178;-78
2023/01/19 05:39:03;;;;;;;7.63;6.83;;;3.00;99.90;;;;;;5014241;28;20587;-78
2023/01/19 05:41:29;;;;;;;11.00;7.57;;;3.00;99.90;;;;;;5031535;28;20218;-78
2023/01/19 05:43:55;;;;;;;8.90;7.50;;;3.00;99.90;;;;;;5013639;28;20909;-77
2023/01/19 05:46:20;;;;;;;8.80;6.50;;;3.10;99.90;;;;;;5031963;28;20258;-78
2023/01/19 05:48:46;;;;;;;7.30;5.93;;;3.00;99.90;;;;;;5031942;28;20387;-78
2023/01/19 05:51:11;;;;;;;7.17;6.07;;;3.10;99.90;;;;;;5009580;28;20568;-78
2023/01/19 05:53:37;;;;;;;7.27;6.27;;;3.00;99.90;;;;;;5037422;28;20182;-78
2023/01/19 05:56:07;;;;;;;8.00;5.57;;;2.80;99.90;;;;;;5030974;28;20218;-78
2023/01/19 05:58:34;;;;;;;6.47;5.50;;;3.00;99.90;;;;;;5054445;28;20288;-78
2023/01/19 06:01:07;;;;;;;7.73;6.50;;;3.00;99.90;;;;;;5041399;28;20901;-78
2023/01/19 06:03:34;;;;;;;7.20;5.43;;;3.00;99.90;;;;;;5021035;28;20973;-78
2023/01/19 06:06:00;;;;;;;7.03;5.50;;;2.90;99.90;;;;;;5014512;28;20434;-78
2023/01/19 06:08:26;;;;;;;5.47;4.97;;;2.80;99.90;;;;;;5015184;28;20417;-78
2023/01/19 06:10:52;;;;;;;5.90;4.80;;;2.90;99.90;;;;;;5016870;28;20196;-78
2023/01/19 06:13:18;;;;;;;5.43;4.83;;;3.00;99.90;;;;;;5017382;28;20421;-78
2023/01/19 06:15:43;;;;;;;6.13;4.90;;;2.90;99.90;;;;;;5014214;28;20191;-78
2023/01/19 06:18:10;;;;;;;5.00;4.37;;;2.80;99.90;;;;;;5000933;28;20256;-78
2023/01/19 06:20:36;;;;;;;5.57;4.63;;;3.00;99.90;;;;;;5035215;28;20174;-78
2023/01/19 06:23:02;;;;;;;6.10;4.73;;;2.90;99.90;;;;;;5037310;28;20430;-78
2023/01/19 06:25:28;;;;;;;4.93;3.80;;;2.70;99.90;;;;;;5054852;28;20394;-79
2023/01/19 06:27:53;;;;;;;4.97;4.47;;;2.70;99.90;;;;;;5051203;28;20424;-78
2023/01/19 06:30:19;;;;;;;4.43;3.80;;;2.70;99.90;;;;;;5019717;28;20190;-78
2023/01/19 06:32:46;;;;;;;4.90;3.90;;;2.90;99.90;;;;;;5034753;28;20214;-78
2023/01/19 06:35:12;;;;;;;4.47;3.80;;;3.00;99.90;;;;;;5017140;28;21087;-78
2023/01/19 06:37:38;;;;;;;4.50;3.83;;;2.90;99.90;;;;;;5016995;28;20832;-78
2023/01/19 06:40:04;;;;;;;4.47;3.90;;;2.70;99.90;;;;;;5016712;28;20421;-78
2023/01/19 06:42:29;;;;;;;4.43;3.80;;;2.80;99.90;;;;;;5034824;28;20551;-77
2023/01/19 06:44:55;;;;;;;4.90;4.40;;;2.90;99.90;;;;;;5017222;28;20493;-78
2023/01/19 06:47:21;;;;;;;3.90;3.40;;;2.90;99.90;;;;;;5034190;28;20186;-78
2023/01/19 06:49:47;;;;;;;3.63;3.23;;;2.80;99.90;;;;;;5034522;28;20182;-78
2023/01/19 06:52:15;;;;;;;5.23;4.03;;;2.90;99.90;;;;;;5051499;28;20209;-78
2023/01/19 06:54:42;;;;;;;5.03;4.53;;;2.90;99.90;;;;;;5054612;28;20416;-78
2023/01/19 06:57:09;;;;;;;5.23;4.20;;;3.00;99.90;;;;;;5045830;28;20453;-79
2023/01/19 06:59:35;;;;;;;4.10;3.70;;;2.80;99.90;;;;;;5016913;28;20413;-79
2023/01/19 07:02:00;;;;;;;5.00;4.50;;;2.90;99.90;;;;;;5017338;28;20435;-79
2023/01/19 07:04:26;;;;;;;5.00;3.93;;;2.90;99.90;;;;;;5032259;28;20657;-79
2023/01/19 07:06:52;;;;;;;4.13;3.70;;;2.80;99.90;;;;;;5042283;28;20183;-79
2023/01/19 07:09:19;;;;;;;4.00;3.60;;;2.60;99.90;;;;;;5033910;28;20189;-78
2023/01/19 07:11:45;;;;;;;4.13;3.73;;;2.80;99.90;;;;;;5034144;28;20210;-79
2023/01/19 07:14:11;;;;;;;4.80;3.67;;;2.80;99.90;;;;;;5033739;28;20448;-78
2023/01/19 07:16:36;;;;;;;6.30;3.83;;;2.70;99.90;;;;;;5033683;28;20445;-78
2023/01/19 07:19:02;;;;;;;4.33;3.73;;;2.90;99.90;;;;;;5033529;28;20579;-78
2023/01/19 07:21:28;;;;;;;4.67;3.40;;;2.80;99.90;;;;;;5033423;28;20190;-78
2023/01/19 07:23:54;;;;;;;4.40;4.00;;;2.70;99.90;;;;;;5028339;28;20443;-78
2023/01/19 07:26:20;;;;;;;4.00;3.60;;;2.60;99.90;;;;;;5033656;28;20186;-78
2023/01/19 07:28:47;;;;;;;3.93;3.50;;;2.90;99.90;;;;;;5023797;28;20182;-78
2023/01/19 07:31:14;;;;;;;4.23;3.73;;;2.80;99.90;;;;;;5008033;28;20878;-78
2023/01/19 07:33:39;;;;;;;4.27;3.53;;;2.90;99.90;;;;;;5044580;28;20409;-78
2023/01/19 07:36:05;;;;;;;4.53;3.90;;;2.90;99.90;;;;;;5024181;28;20905;-78
2023/01/19 07:38:31;;;;;;;5.00;4.50;;;2.60;99.90;;;;;;5021310;28;20205;-78
2023/01/19 07:41:01;;;;;;;5.53;5.03;;;2.70;99.90;;;;;;5032312;28;20483;-79
2023/01/19 07:43:26;;;;;;;5.53;5.03;;;2.90;99.90;;;;;;5015001;28;20167;-78
2023/01/19 07:45:55;;;;;;;7.17;5.30;;;2.80;99.90;;;;;;5034903;28;20440;-78
2023/01/19 07:48:21;;;;;;;5.40;4.90;;;3.00;99.90;;;;;;5029094;28;20186;-78
2023/01/19 07:50:47;;;;;;;10.07;6.50;;;2.70;99.90;;;;;;5014972;28;20586;-79
2023/01/19 07:53:13;;;;;;;6.60;5.90;;;3.00;99.90;;;;;;5014819;28;20213;-79
2023/01/19 07:55:38;;;;;;;6.10;5.50;;;2.80;99.90;;;;;;5032485;28;20233;-79
2023/01/19 07:58:06;;;;;;;7.20;6.20;;;2.70;99.90;;;;;;5036005;28;20502;-79
2023/01/19 08:00:32;;;;;;;8.87;6.67;;;2.70;99.90;;;;;;5028440;28;20177;-79
2023/01/19 08:02:59;;;;;;;8.60;6.10;;;2.70;99.90;;;;;;5043647;28;20425;-78
2023/01/19 08:05:27;;;;;;;11.57;7.30;;;2.70;99.90;;;;;;5040824;28;20412;-79
2023/01/19 08:07:56;;;;;;;6.83;6.20;;;2.80;99.90;;;;;;5037154;28;20421;-79
2023/01/19 08:10:24;;;;;;;8.03;6.40;;;2.90;99.90;;;;;;5039945;28;20426;-78
2023/01/19 08:12:50;;;;;;;7.47;6.77;;;2.90;99.90;;;;;;5031869;28;20486;-79
2023/01/19 08:15:16;;;;;;;8.20;7.20;;;2.80;99.90;;;;;;5032072;28;20421;-79
2023/01/19 08:17:42;;;;;;;10.10;7.70;;;3.10;99.90;;;;;;5031535;28;20599;-78
2023/01/19 08:20:09;;;;;;;8.90;7.30;;;2.80;99.90;;;;;;5031320;28;20420;-78
2023/01/19 08:22:35;;;;;;;9.90;7.97;;;3.10;99.90;;;;;;5031307;28;20430;-78
2023/01/19 08:25:01;;;;;;;9.67;7.17;;;3.00;99.90;;;;;;5031082;28;20413;-77
2023/01/19 08:27:27;;;;;;;8.27;6.60;;;2.90;99.90;;;;;;5031115;28;20425;-78
2023/01/19 08:29:53;;;;;;;10.00;7.77;;;3.00;99.90;;;;;;5031270;28;20410;-78
2023/01/19 08:32:19;;;;;;;7.90;6.70;;;3.00;99.90;;;;;;5031219;28;20460;-78
2023/01/19 08:34:45;;;;;;;10.00;7.17;;;3.10;99.90;;;;;;5031122;28;20572;-78
2023/01/19 08:37:10;;;;;;;9.13;7.60;;;2.90;99.90;;;;;;5031190;28;20273;-78
2023/01/19 08:39:36;;;;;;;14.57;7.57;;;3.20;99.90;;;;;;5013766;28;20601;-78
2023/01/19 08:42:02;;;;;;;9.93;7.17;;;3.10;99.90;;;;;;5012645;28;20284;-78
2023/01/19 08:44:28;;;;;;;9.67;7.57;;;3.10;99.90;;;;;;5033305;28;20412;-78
2023/01/19 08:46:54;;;;;;;7.97;7.10;;;3.10;99.90;;;;;;5051642;28;20422;-79
2023/01/19 08:49:19;;;;;;;12.07;8.57;;;2.90;99.90;;;;;;5033710;28;20173;-79
2023/01/19 08:51:45;;;;;;;10.20;8.23;;;3.10;99.90;;;;;;5051613;28;20197;-79
2023/01/19 08:54:12;;;;;;;12.23;9.50;;;3.10;99.90;;;;;;5051478;28;20216;-79
2023/01/19 08:56:38;;;;;;;9.43;8.10;;;3.10;99.90;;;;;;5051790;28;20800;-79
2023/01/19 08:59:03;;;;;;;11.93;9.00;;;3.10;99.90;;;;;;5051101;28;20505;-79
2023/01/19 09:01:29;;;;;;;11.10;9.57;;;3.00;99.90;;;;;;5033709;28;20254;-79
2023/01/19 09:03:55;;;;;;;13.23;9.40;;;3.10;99.90;;;;;;5051184;28;20166;-78
2023/01/19 09:06:21;;;;;;;12.20;9.13;;;3.10;99.90;;;;;;5051694;28;20178;-79
2023/01/19 09:08:46;;;;;;;13.97;12.17;;;3.10;99.90;;;;;;5033396;28;20702;-79
2023/01/19 09:11:14;;;;;;;12.93;10.97;;;3.00;99.90;;;;;;5040699;28;20441;-78
2023/01/19 09:13:40;;;;;;;12.47;10.37;;;3.10;99.90;;;;;;5031135;28;20178;-79
2023/01/19 09:16:07;;;;;;;14.00;10.73;;;3.00;99.90;;;;;;5028801;28;20431;-78
2023/01/19 09:18:34;;;;;;;16.07;12.40;;;3.00;99.90;;;;;;5031314;28;20484;-79
2023/01/19 09:21:00;;;;;;;16.20;12.53;;;3.30;99.90;;;;;;5031345;28;20425;-78
2023/01/19 09:23:27;;;;;;;15.03;12.10;;;3.10;99.90;;;;;;5031798;28;20437;-79
2023/01/19 09:25:58;;;;;;;16.57;12.23;;;3.20;99.90;;;;;;5031726;28;20463;-79
2023/01/19 09:28:24;;;;;;;17.00;12.87;;;3.20;99.90;;;;;;5013305;28;20468;-79
2023/01/19 09:30:50;;;;;;;17.57;13.00;;;3.00;99.90;;;;;;5013122;28;20838;-79
2023/01/19 09:33:18;;;;;;;15.10;12.00;;;3.30;99.90;;;;;;5030322;28;20413;-78
2023/01/19 09:35:45;;;;;;;17.73;13.87;;;3.00;99.90;;;;;;5031250;28;20182;-79
2023/01/19 09:38:14;;;;;;;18.20;12.93;;;3.20;99.90;;;;;;5013128;28;20896;-78
2023/01/19 09:40:41;;;;;;;15.53;12.80;;;3.10;99.90;;;;;;5031042;28;20475;-79
2023/01/19 09:43:16;;;;;;;24.70;14.63;;;3.10;99.90;;;;;;5031186;28;20416;-78
2023/01/19 09:45:48;;;;;;;18.87;14.00;;;3.20;99.90;;;;;;5031212;28;20428;-78
2023/01/19 09:48:29;;;;;;;18.07;13.13;;;3.20;99.90;;;;;;5030815;28;20811;-78
2023/01/19 09:50:59;;;;;;;16.07;12.53;;;3.30;99.90;;;;;;5032206;28;20417;-78
2023/01/19 09:53:50;;;;;;;17.60;13.80;;;3.30;99.90;;;;;;5032204;28;20905;-78
2023/01/19 09:56:18;;;;;;;20.70;15.13;;;3.40;99.90;;;;;;5031046;28;20777;-78
2023/01/19 09:58:45;;;;;;;18.83;15.20;;;3.40;99.90;;;;;;5031493;28;21005;-79
2023/01/19 10:01:33;;;;;;;18.47;13.77;;;3.20;99.90;;;;;;5031404;28;20444;-78
2023/01/19 10:04:30;;;;;;;16.57;13.43;;;3.30;99.90;;;;;;5013866;28;20414;-79
2023/01/19 10:07:30;;;;;;;17.87;13.60;;;3.10;99.90;;;;;;5023476;28;20409;-78
2023/01/19 10:10:02;;;;;;;19.17;13.70;;;3.30;99.90;;;;;;5031001;28;20443;-79
2023/01/19 10:12:42;;;;;;;15.67;13.00;;;3.20;99.90;;;;;;4993193;28;20488;-78
2023/01/19 10:15:34;;;;;;;17.37;13.73;;;3.30;99.90;;;;;;4990747;28;20473;-79
2023/01/19 10:18:39;;;;;;;16.40;13.27;;;3.40;99.90;;;;;;5010523;28;20449;-78
2023/01/19 10:21:13;;;;;;;16.93;13.87;;;3.30;99.90;;;;;;5002694;28;20446;-79
2023/01/19 10:23:48;;;;;;;16.60;13.17;;;3.40;99.90;;;;;;5010489;28;20500;-78
2023/01/19 10:26:35;;;;;;;17.53;12.93;;;3.30;99.90;;;;;;5010680;28;20465;-78
2023/01/19 10:29:05;;;;;;;16.27;12.43;;;3.30;99.90;;;;;;5010752;28;21290;-78
2023/01/19 10:31:32;;;;;;;21.87;15.20;;;3.30;99.90;;;;;;5010886;28;20446;-77
2023/01/19 10:33:58;;;;;;;18.43;13.70;;;3.40;99.90;;;;;;4991512;28;20413;-77
2023/01/19 10:36:32;;;;;;;20.83;15.03;;;3.20;99.90;;;;;;5008090;28;20410;-77
2023/01/19 10:38:58;;;;;;;20.03;14.60;;;3.40;99.90;;;;;;4975298;28;20214;-77
2023/01/19 10:41:36;;;;;;;20.73;16.40;;;3.20;99.90;;;;;;4991151;28;20430;-78
2023/01/19 10:44:04;;;;;;;26.40;16.50;;;3.40;99.90;;;;;;5008928;28;20202;-77
2023/01/19 10:46:46;;;;;;;21.67;16.13;;;3.30;99.90;;;;;;4994360;28;20477;-77
2023/01/19 10:49:38;;;;;;;25.13;16.97;;;3.30;99.90;;;;;;5011341;28;20408;-78
2023/01/19 10:52:25;;;;;;;25.93;17.60;;;3.40;99.90;;;;;;5012716;28;20437;-77
2023/01/19 10:54:51;;;;;;;23.80;17.40;;;3.40;99.90;;;;;;5012453;28;20969;-78
2023/01/19 10:57:29;;;;;;;27.30;16.63;;;3.30;99.90;;;;;;5012093;28;20540;-77
2023/01/19 10:59:55;;;;;;;26.67;16.20;;;3.50;99.90;;;;;;4978335;28;20651;-77
2023/01/19 11:02:25;;;;;;;27.93;17.63;;;3.30;99.90;;;;;;5012459;28;20441;-77
2023/01/19 11:04:56;;;;;;;29.70;17.90;;;3.40;99.90;;;;;;5012210;28;21136;-78
2023/01/19 11:07:32;;;;;;;25.97;17.47;;;3.60;99.90;;;;;;5012218;28;20426;-78
2023/01/19 11:10:16;;;;;;;22.47;16.83;;;3.50;99.90;;;;;;5012142;28;20947;-78
2023/01/19 11:12:55;;;;;;;26.50;18.10;;;3.50;99.90;;;;;;5012303;28;20434;-77
2023/01/19 11:15:32;;;;;;;25.53;18.47;;;3.60;99.90;;;;;;4994477;28;20920;-77
2023/01/19 11:17:58;;;;;;;24.73;18.47;;;3.50;99.90;;;;;;5011109;28;20457;-77
2023/01/19 11:20:50;;;;;;;26.77;18.00;;;3.80;99.90;;;;;;5013976;28;20414;-77
2023/01/19 11:23:28;;;;;;;27.43;17.70;;;3.50;99.90;;;;;;5014058;28;20781;-77
2023/01/19 11:25:57;;;;;;;30.37;18.83;;;3.80;99.90;;;;;;5031762;28;20984;-77
2023/01/19 11:28:33;;;;;;;31.03;19.23;;;3.70;99.90;;;;;;5031509;28;20448;-77
2023/01/19 11:31:01;;;;;;;31.23;20.70;;;3.60;99.90;;;;;;4997274;28;20452;-77
2023/01/19 11:33:35;;;;;;;29.60;21.10;;;3.40;99.90;;;;;;5031573;28;20413;-77
2023/01/19 11:36:14;;;;;;;32.17;19.60;;;3.50;99.90;;;;;;5031628;28;20417;-78
2023/01/19 11:38:42;;;;;;;31.83;20.40;;;3.70;99.90;;;;;;4997350;28;20460;-77
2023/01/19 11:41:23;;;;;;;33.33;21.90;;;3.60;99.90;;;;;;5013592;28;20512;-77
2023/01/19 11:43:53;;;;;;;31.97;18.90;;;3.70;99.90;;;;;;5031747;28;20443;-78
2023/01/19 11:46:21;;;;;;;32.63;19.83;;;3.60;99.90;;;;;;5033795;28;20495;-77
2023/01/19 11:49:14;;;;;;;32.23;22.77;;;3.50;99.90;;;;;;5031911;28;20417;-78
2023/01/19 11:51:48;;;;;;;33.83;21.13;;;3.70;99.90;;;;;;5018508;28;20448;-77
2023/01/19 11:54:28;;;;;;;30.33;21.03;;;3.60;99.90;;;;;;5031909;28;20408;-77
2023/01/19 11:56:57;;;;;;;32.37;21.83;;;3.60;99.90;;;;;;5031306;28;20413;-77
2023/01/19 11:59:25;;;;;;;29.87;20.80;;;3.40;99.90;;;;;;5012553;28;20459;-77
2023/01/19 12:01:56;;;;;;;36.57;22.40;;;3.60;99.90;;;;;;5031517;28;20429;-77
2023/01/19 12:04:39;;;;;;;30.93;21.23;;;3.50;99.90;;;;;;5033482;28;20409;-78
2023/01/19 12:07:09;;;;;;;32.90;21.57;;;3.80;99.90;;;;;;5035837;28;20444;-78
2023/01/19 12:09:41;;;;;;;33.47;22.20;;;3.40;99.90;;;;;;5034929;28;20421;-77
2023/01/19 12:12:28;;;;;;;28.77;20.93;;;3.50;99.90;;;;;;5033066;28;20456;-77
2023/01/19 12:15:00;;;;;;;34.73;24.97;;;3.60;99.90;;;;;;5030864;28;20409;-78
2023/01/19 12:17:30;;;;;;;31.13;21.43;;;3.70;99.90;;;;;;5012650;28;20888;-77
2023/01/19 12:20:24;;;;;;;34.20;22.33;;;3.60;99.90;;;;;;5013259;28;20504;-77
2023/01/19 12:23:09;;;;;;;33.80;21.80;;;3.70;99.90;;;;;;5030822;28;20457;-77
2023/01/19 12:26:12;;;;;;;34.63;21.43;;;3.70;99.90;;;;;;4999402;28;20455;-77
2023/01/19 12:28:41;;;;;;;35.77;21.07;;;3.60;99.90;;;;;;5030094;28;20455;-77
2023/01/19 12:31:07;;;;;;;31.60;18.10;;;3.60;99.90;;;;;;5030201;28;20817;-77
2023/01/19 12:33:37;;;;;;;29.53;18.33;;;3.50;99.90;;;;;;5030477;28;20749;-77
2023/01/19 12:36:23;;;;;;;36.47;21.67;;;3.50;99.90;;;;;;5030862;28;20476;-77
2023/01/19 12:38:55;;;;;;;33.80;21.60;;;3.50;99.90;;;;;;5030082;28;20456;-77
2023/01/19 12:41:28;;;;;;;29.80;19.63;;;3.60;99.90;;;;;;4996101;28;20433;-77
2023/01/19 12:44:14;;;;;;;30.83;18.60;;;3.90;99.90;;;;;;5030427;28;20417;-77
2023/01/19 12:46:41;;;;;;;29.93;19.90;;;3.70;99.90;;;;;;5030396;28;20405;-77
2023/01/19 12:49:32;;;;;;;32.07;20.40;;;3.70;99.90;;;;;;5012419;28;20409;-77
2023/01/19 12:52:19;;;;;;;30.37;19.70;;;3.80;99.90;;;;;;5030289;28;20440;-77
2023/01/19 12:54:59;;;;;;;34.73;20.47;;;3.60;99.90;;;;;;5030117;28;20424;-77
2023/01/19 12:57:34;;;;;;;34.93;20.50;;;3.80;99.90;;;;;;5012346;28;20464;-77
2023/01/19 13:00:21;;;;;;;33.83;20.13;;;3.80;99.90;;;;;;5012669;28;20979;-77
2023/01/19 13:02:48;;;;;;;34.40;20.33;;;3.70;99.90;;;;;;5030476;28;21034;-77
2023/01/19 13:05:15;;;;;;;39.33;21.17;;;3.80;99.90;;;;;;5029612;28;20447;-76
2023/01/19 13:08:06;;;;;;;35.23;19.90;;;3.70;99.90;;;;;;5010968;28;20442;-77
2023/01/19 13:11:09;;;;;;;37.80;22.20;;;3.80;99.90;;;;;;5017633;28;20743;-77